CheckWX is a tool to help pilots better visualize weather data.  It is not intended as a substitute for an official pre-flight weather briefing.

00:11:20 UTC

KAAO METAR
Colonel James Jabara Airport
Wichita, Kansas, USA
Current

17 mins ago

KAAO 242354Z AUTO 36009KT 10SM FEW027 07/03 A2980 RMK AO2 SLP094 T00720028 10089 20072 53023
Observed
Feb-24 @ 23:54 UTC
Wind
  • 360° at 9 KTS
Visibility
10 SM
Flight Rules
VFR
Cloud Levels
  • Few at 2,700' AGL
Temperature
C / 45°F
Dewpoint
C / 37°F
Humidity
76%
Altimeter
29.8" Hg
Pressure
1009.12 hPa
Previous

52 mins ago

KAAO 242319Z AUTO 01009G19KT 10SM SCT026 08/03 A2978 RMK AO2 T00830033
Observed
Feb-24 @ 23:19 UTC
Wind
  • 010° at 9 KTS
  • Gusting to 19 KTS
Visibility
10 SM
Flight Rules
VFR
Cloud Levels
  • Scattered at 2,600' AGL
Temperature
C / 46°F
Dewpoint
C / 37°F
Humidity
71%
Altimeter
29.78" Hg
Pressure
1008.42 hPa
Previous

1 hour ago

KAAO 242254Z AUTO 36013KT 10SM OVC027 08/03 A2977 RMK AO2 SLP084 T00780033
Observed
Feb-24 @ 22:54 UTC
Wind
  • 360° at 13 KTS
Visibility
10 SM
Flight Rules
MVFR
Cloud Levels
  • Overcast at 2,700' AGL
Temperature
C / 46°F
Dewpoint
C / 37°F
Humidity
71%
Altimeter
29.77" Hg
Pressure
1008.12 hPa